11V weather

Easton/Valley View Airport
Greeley, Colorado, United States

Public forecast

Using degrees Fahrenheit for public forecast. Weather courtesy of forecast.io.

METAR (pilot weather report)

Closest report is Greeley–Weld County Airport, 6.5 nm (12.1 km) N. Retrieved 2019/08/23 22:56 UTC (6 minutes ago):

KGXY 232256Z AUTO 12020G27KT 10SM 30/16 A2994 RMK AO2 PK WND 12027/2255 LTG DSNT E AND W SLP092 T03000161 $

TAF (pilot weather forecast)

Closest forecast is Denver International Airport, 28.3 nm (52.4 km) S. Retrieved 2019/08/23 18:30 UTC (5 hours ago):

TAF KDEN 231727Z 2318/2424 01007KT P6SM FEW090 SCT130 BKN200 FM232000 03009KT P6SM VCSH SCT090 BKN120 TEMPO 2320/2323 VRB25G35KT TS BKN080CB FM240000 13012KT P6SM FEW090 BKN120 FM240500 20010KT P6SM FEW120 SCT200 FM241500 29010KT P6SM SKC FM241900 02010KT P6SM FEW100